Terminal Aerodrome Forecast
Issued by NWS Springfield, MO

Home | Current Version | Previous Version | Graphics & Text | Print | Product List | Glossary On
Versions: 1 2 3 4 5 6 7 8 9 10 11 12 13 14 15 16 17 18 19 20 21 22 23 24 25 26 27 28 29 30 31 32 33 34
000
FTUS43 KSGF 031100
TAFSGF
TAF
KSGF 031120Z 0312/0412 17015KT 4SM BR OVC004 WS020/21040KT
      TEMPO 0312/0314 2SM -RADZ BR
     FM031400 20017G24KT 4SM BR OVC004 WS020/23050KT
     FM031800 23017G24KT P6SM OVC007
     FM032200 24012KT P6SM OVC007
     FM040400 36010KT 4SM -RA BR OVC007
     FM040700 36010KT 3SM -SN BR OVC007=

USA.gov is the U.S. government's official web portal to all federal, state and local government web resources and services.